Time;durP1;ratioP1;P1;durP2;ratioP2;P2;SDS_P1;SDS_P2;PMS_P1;PMS_P2;Temp;Humidity;BMP_temperature;BMP_pressure;BME280_temperature;BME280_humidity;BME280_pressure;Samples;Min_cycle;Max_cycle;Signal;HPM_P1;HPM_P2
2022/12/16 00:01:24;;;;;;;13.13;6.60;;;0.10;99.90;;;;;;5057678;28;20052;-88
2022/12/16 00:03:57;;;;;;;14.93;6.60;;;0.10;99.90;;;;;;5057404;28;20072;-86
2022/12/16 00:06:26;;;;;;;8.43;5.85;;;0.30;99.90;;;;;;5075026;28;20400;-86
2022/12/16 00:08:52;;;;;;;10.07;5.38;;;0.20;99.90;;;;;;5075282;28;20087;-87
2022/12/16 00:11:18;;;;;;;10.88;4.63;;;0.20;99.90;;;;;;5040005;28;20063;-87
2022/12/16 00:13:46;;;;;;;11.02;4.93;;;0.40;99.90;;;;;;5057282;28;20056;-86
2022/12/16 00:16:15;;;;;;;9.48;3.78;;;0.30;99.90;;;;;;5074798;28;20041;-87
2022/12/16 00:18:41;;;;;;;9.73;3.65;;;0.40;99.90;;;;;;5073948;28;20040;-86
2022/12/16 00:21:10;;;;;;;5.18;2.78;;;0.40;99.90;;;;;;5073867;28;20037;-85
2022/12/16 00:23:42;;;;;;;4.53;1.90;;;0.40;99.90;;;;;;5074792;28;20075;-87
2022/12/16 00:26:09;;;;;;;5.07;1.77;;;0.40;99.90;;;;;;5074310;28;20485;-87
2022/12/16 00:28:35;;;;;;;4.57;2.05;;;0.50;99.90;;;;;;5054302;28;20128;-87
2022/12/16 00:31:02;;;;;;;6.07;1.52;;;0.60;99.90;;;;;;5075129;28;20079;-88
2022/12/16 00:33:28;;;;;;;4.47;1.75;;;0.60;99.90;;;;;;5073845;28;20043;-87
2022/12/16 00:35:55;;;;;;;4.63;1.33;;;0.60;99.90;;;;;;5073874;28;20048;-86
2022/12/16 00:38:24;;;;;;;7.40;2.10;;;0.60;99.90;;;;;;5080099;28;20109;-87
2022/12/16 00:40:51;;;;;;;6.72;1.65;;;0.70;99.90;;;;;;5094477;28;20100;-88
2022/12/16 00:43:19;;;;;;;2.47;1.48;;;0.70;99.90;;;;;;5076504;28;20048;-86
2022/12/16 00:45:46;;;;;;;4.50;1.45;;;0.70;99.90;;;;;;5094888;28;20119;-86
2022/12/16 00:48:15;;;;;;;5.18;1.60;;;0.80;99.90;;;;;;5076173;28;20488;-87
2022/12/16 00:50:48;;;;;;;4.13;1.33;;;0.80;99.90;;;;;;5094691;28;20560;-85
2022/12/16 00:53:17;;;;;;;4.93;1.23;;;0.90;99.90;;;;;;5076002;28;20055;-88
2022/12/16 00:55:43;;;;;;;7.18;1.88;;;0.90;99.90;;;;;;5094220;28;20497;-87
2022/12/16 00:58:17;;;;;;;8.82;2.17;;;0.90;99.90;;;;;;5076428;28;20112;-88
2022/12/16 01:01:12;;;;;;;3.05;1.40;;;2.00;99.90;;;;;;5078234;28;20115;-87
2022/12/16 01:03:57;;;;;;;5.32;1.90;;;1.00;99.90;;;;;;5007709;28;20045;-88
2022/12/16 01:07:04;;;;;;;4.25;2.03;;;1.00;99.90;;;;;;5074188;28;20133;-88
2022/12/16 01:10:28;;;;;;;;;;;;;;;;;;;;;
2022/12/16 01:13:53;;;;;;;3.63;1.98;;;1.10;99.90;;;;;;5094516;28;20044;-88
2022/12/16 01:17:14;;;;;;;;;;;;;;;;;;;;;
2022/12/16 01:20:34;;;;;;;5.95;1.65;;;1.10;99.90;;;;;;5094344;28;20500;-86
2022/12/16 01:23:58;;;;;;;;;;;;;;;;;;;;;
2022/12/16 01:26:59;;;;;;;3.80;1.67;;;1.20;99.90;;;;;;5093858;28;20059;-88
2022/12/16 01:30:28;;;;;;;;;;;;;;;;;;;;;
2022/12/16 01:33:34;;;;;;;;;;;;;;;;;;;;;
2022/12/16 01:36:11;;;;;;;3.88;1.98;;;1.30;99.90;;;;;;5072695;28;20083;-87
2022/12/16 01:39:30;;;;;;;;;;;;;;;;;;;;;
2022/12/16 01:43:00;;;;;;;;;;;;;;;;;;;;;
2022/12/16 01:46:33;;;;;;;2.30;1.40;;;1.50;99.90;;;;;;5073502;28;20408;-88
2022/12/16 01:49:42;;;;;;;4.25;1.25;;;1.50;99.90;;;;;;4989514;28;20120;-87
2022/12/16 01:53:02;;;;;;;3.50;1.52;;;1.50;99.90;;;;;;5010052;28;20097;-87
2022/12/16 01:56:32;;;;;;;2.60;1.33;;;1.60;99.90;;;;;;4992047;28;20049;-87
2022/12/16 02:00:02;;;;;;;;;;;;;;;;;;;;;
2022/12/16 02:03:28;;;;;;;;;;;;;;;;;;;;;
2022/12/16 02:06:54;;;;;;;;;;;;;;;;;;;;;
2022/12/16 02:10:16;;;;;;;;;;;;;;;;;;;;;
2022/12/16 02:13:46;;;;;;;4.50;1.40;;;1.60;99.90;;;;;;5011243;28;20056;-87
2022/12/16 02:17:20;;;;;;;3.65;1.33;;;1.60;99.90;;;;;;5011009;28;20053;-87
2022/12/16 02:21:01;;;;;;;3.03;1.38;;;1.60;99.90;;;;;;5007477;28;20042;-87
2022/12/16 02:24:31;;;;;;;2.45;1.27;;;1.60;99.90;;;;;;5011203;28;20388;-86
2022/12/16 02:28:00;;;;;;;;;;;;;;;;;;;;;
2022/12/16 02:31:42;;;;;;;;;;;;;;;;;;;;;
2022/12/16 02:35:16;;;;;;;;;;;;;;;;;;;;;
2022/12/16 02:38:38;;;;;;;5.15;2.58;;;1.80;99.90;;;;;;5052679;28;20049;-88
2022/12/16 02:41:56;;;;;;;7.38;2.50;;;1.80;99.90;;;;;;5092021;28;20052;-86
2022/12/16 02:45:33;;;;;;;7.20;2.30;;;1.80;99.90;;;;;;5095030;28;20078;-88
2022/12/16 02:48:53;;;;;;;6.25;3.28;;;1.90;99.90;;;;;;5097098;28;20055;-88
2022/12/16 02:51:50;;;;;;;5.38;3.33;;;1.90;99.90;;;;;;5096881;28;20079;-87
2022/12/16 02:55:06;;;;;;;9.88;4.38;;;1.90;99.90;;;;;;5096967;28;20392;-87
2022/12/16 02:58:38;;;;;;;;;;;;;;;;;;;;;
2022/12/16 03:02:00;;;;;;;9.93;5.35;;;1.90;99.90;;;;;;5096693;28;20166;-88
2022/12/16 03:05:24;;;;;;;;;;;;;;;;;;;;;
2022/12/16 03:09:02;;;;;;;9.93;5.70;;;1.90;99.90;;;;;;5061109;28;20083;-88
2022/12/16 03:12:34;;;;;;;12.33;7.20;;;1.90;99.90;;;;;;5096700;28;20484;-87
2022/12/16 03:15:01;;;;;;;15.68;8.50;;;1.90;99.90;;;;;;5095939;28;20345;-87
2022/12/16 03:18:24;;;;;;;18.63;8.82;;;1.90;99.90;;;;;;5077714;28;20152;-86
2022/12/16 03:21:56;;;;;;;;;;;;;;;;;;;;;
2022/12/16 03:25:10;;;;;;;20.88;11.18;;;1.90;99.90;;;;;;5081331;28;20044;-87
2022/12/16 03:28:38;;;;;;;25.73;11.02;;;1.90;99.90;;;;;;5095675;28;20056;-85
2022/12/16 03:31:40;;;;;;;;;;;2.00;99.90;;;;;;5095862;28;20127;-86
2022/12/16 03:35:12;;;;;;;;;;;;;;;;;;;;;
2022/12/16 03:38:41;;;;;;;24.95;13.25;;;2.00;99.90;;;;;;5096068;28;20058;-87
2022/12/16 03:42:20;;;;;;;;;;;;;;;;;;;;;
2022/12/16 03:45:50;;;;;;;26.67;13.50;;;1.90;99.90;;;;;;5075532;28;20147;-87
2022/12/16 03:52:38;;;;;;;28.10;12.90;;;1.70;99.90;;;;;;5075169;28;20048;-87
2022/12/16 03:55:54;;;;;;;25.80;13.30;;;1.60;99.90;;;;;;5074343;28;20044;-86
2022/12/16 03:59:02;;;;;;;25.38;12.52;;;1.60;99.90;;;;;;5057164;28;20044;-87
2022/12/16 04:02:10;;;;;;;30.02;14.73;;;1.50;99.90;;;;;;5023748;28;20063;-87
2022/12/16 04:05:24;;;;;;;24.88;13.32;;;1.40;99.90;;;;;;5073761;28;20128;-87
2022/12/16 04:09:00;;;;;;;;;;;;;;;;;;;;;
2022/12/16 04:25:56;;;;;;;29.08;14.20;;;1.20;99.90;;;;;;5074607;28;20040;-86
2022/12/16 04:29:04;;;;;;;28.08;13.98;;;1.20;99.90;;;;;;5073963;28;20049;-86
2022/12/16 04:32:28;;;;;;;;;;;;;;;;;;;;;
